Time;durP1;ratioP1;P1;durP2;ratioP2;P2;SDS_P1;SDS_P2;PMS_P1;PMS_P2;Temp;Humidity;BMP_temperature;BMP_pressure;BME280_temperature;BME280_humidity;BME280_pressure;Samples;Min_cycle;Max_cycle;Signal;HPM_P1;HPM_P2
2021/11/03 00:00:29;;;;;;;65.50;35.78;;;;;;;7.17;77.36;99109.39;2126392;82;27727;-67
2021/11/03 00:03:34;;;;;;;56.23;33.53;;;;;;;7.19;77.41;99111.50;2140703;82;27620;-63
2021/11/03 00:06:41;;;;;;;55.75;33.55;;;;;;;7.20;77.36;99118.55;2127217;83;29859;-61
2021/11/03 00:09:43;;;;;;;57.10;32.08;;;;;;;7.19;77.28;99116.37;2127330;83;31191;-62
2021/11/03 00:12:46;;;;;;;57.85;32.13;;;;;;;7.18;77.30;99115.98;2127820;82;34155;-62
2021/11/03 00:15:47;;;;;;;49.63;30.70;;;;;;;7.18;77.24;99118.64;2126931;83;30764;-67
2021/11/03 00:18:49;;;;;;;52.33;30.88;;;;;;;7.16;77.09;99128.52;2127474;83;27588;-61
2021/11/03 00:21:51;;;;;;;49.60;28.95;;;;;;;7.13;77.03;99122.02;2135392;82;28985;-66
2021/11/03 00:24:54;;;;;;;49.55;29.12;;;;;;;7.11;77.11;99130.11;2130922;82;27217;-60
2021/11/03 00:27:56;;;;;;;52.70;29.98;;;;;;;7.11;77.13;99136.77;2127254;83;33674;-64
2021/11/03 00:31:00;;;;;;;49.40;28.80;;;;;;;7.12;77.16;99137.61;2126651;83;30507;-66
2021/11/03 00:34:01;;;;;;;49.50;27.27;;;;;;;7.11;77.04;99143.88;2128341;82;28193;-65
2021/11/03 00:37:04;;;;;;;45.43;26.70;;;;;;;7.10;77.09;99143.48;2126907;83;29352;-62
2021/11/03 00:40:08;;;;;;;50.40;27.22;;;;;;;7.08;77.11;99144.91;2127259;83;31819;-60
2021/11/03 00:43:10;;;;;;;48.48;27.07;;;;;;;7.08;77.13;99151.57;2131936;82;33727;-65
2021/11/03 00:46:12;;;;;;;45.25;27.58;;;;;;;7.07;77.14;99148.52;2126797;81;30153;-68
2021/11/03 00:49:15;;;;;;;41.45;25.70;;;;;;;7.08;77.18;99149.36;2126959;83;27539;-68
2021/11/03 00:52:16;;;;;;;45.40;26.15;;;;;;;7.06;77.06;99151.25;2127736;82;29546;-67
2021/11/03 00:55:19;;;;;;;45.20;25.77;;;;;;;7.03;76.96;99140.78;2110004;82;31441;-64
2021/11/03 00:58:21;;;;;;;44.25;25.97;;;;;;;6.99;76.71;99144.06;2163630;82;33824;-63
2021/11/03 01:01:23;;;;;;;49.90;25.52;;;;;;;6.90;76.49;99146.74;2164386;82;30211;-65
2021/11/03 01:04:25;;;;;;;46.30;27.70;;;;;;;6.81;76.39;99143.25;2133822;82;27651;-68
2021/11/03 01:07:27;;;;;;;39.05;25.10;;;;;;;6.71;76.23;99144.66;2127222;81;28859;-67
2021/11/03 01:10:29;;;;;;;42.45;25.40;;;;;;;6.59;76.10;99148.84;2127207;83;31424;-63
2021/11/03 01:13:31;;;;;;;43.17;24.87;;;;;;;6.46;76.10;99152.11;2126273;83;34134;-64
2021/11/03 01:16:33;;;;;;;42.48;24.90;;;;;;;6.36;76.05;99150.88;2127191;83;30066;-66
2021/11/03 01:19:35;;;;;;;37.20;23.83;;;;;;;6.25;76.05;99159.39;2129560;82;27699;-66
2021/11/03 01:22:38;;;;;;;44.13;25.48;;;;;;;6.15;76.00;99155.00;2118576;83;29031;-66
2021/11/03 01:25:40;;;;;;;41.60;25.27;;;;;;;6.03;75.98;99155.16;2091795;83;31015;-64
2021/11/03 01:28:42;;;;;;;63.13;33.65;;;;;;;5.94;75.93;99163.55;2091262;85;33854;-66
2021/11/03 01:31:44;;;;;;;53.48;29.85;;;;;;;5.82;75.97;99166.33;2113748;82;30666;-64
2021/11/03 01:34:47;;;;;;;46.15;27.93;;;;;;;5.72;76.12;99170.37;2126732;83;27691;-69
2021/11/03 01:37:50;;;;;;;50.98;30.20;;;;;;;5.62;76.20;99165.52;2127373;83;29154;-69
2021/11/03 01:40:52;;;;;;;50.48;30.92;;;;;;;5.56;76.29;99167.12;2131824;82;32170;-70
2021/11/03 01:44:14;;;;;;;56.88;33.55;;;;;;;5.51;76.33;99165.14;2139826;82;33791;-69
2021/11/03 01:47:44;;;;;;;60.90;35.70;;;;;;;5.45;76.32;99160.14;2149529;81;30170;-69
2021/11/03 01:50:54;;;;;;;69.72;37.75;;;;;;;5.38;76.39;99158.69;2164914;80;27620;-69
2021/11/03 01:53:57;;;;;;;59.85;34.53;;;;;;;5.31;76.44;99156.78;2175268;80;28596;-67
2021/11/03 01:57:03;;;;;;;61.50;35.58;;;;;;;5.25;76.47;99158.39;2161623;82;31855;-66
2021/11/03 02:00:14;;;;;;;58.38;33.65;;;;;;;5.19;76.41;99162.19;2198822;80;33156;-67
2021/11/03 02:03:19;;;;;;;72.50;38.83;;;;;;;5.12;76.33;99158.11;2181791;80;29304;-66
2021/11/03 02:06:25;;;;;;;65.32;36.95;;;;;;;5.04;76.34;99162.89;2162387;82;27576;-67
2021/11/03 02:09:27;;;;;;;64.90;37.55;;;;;;;4.96;76.36;99161.91;2162080;82;29479;-65
2021/11/03 02:12:30;;;;;;;74.25;41.92;;;;;;;4.89;76.45;99169.73;2162266;82;31061;-64
2021/11/03 02:15:35;;;;;;;62.93;39.92;;;;;;;4.80;76.61;99153.79;2162470;82;32952;-65
2021/11/03 02:18:38;;;;;;;73.92;43.05;;;;;;;4.74;76.42;99154.05;2162791;82;29662;-64
2021/11/03 02:21:45;;;;;;;68.70;39.48;;;;;;;4.67;76.43;99161.42;2163575;82;27676;-67
2021/11/03 02:25:12;;;;;;;60.48;36.75;;;;;;;4.58;76.45;99156.50;2161727;82;29496;-67
2021/11/03 02:28:16;;;;;;;55.48;34.53;;;;;;;4.52;76.47;99157.19;2162045;82;31210;-63
2021/11/03 02:31:44;;;;;;;57.75;35.63;;;;;;;4.45;76.59;99154.39;2161967;82;33033;-64
2021/11/03 02:34:47;;;;;;;55.80;32.53;;;;;;;4.38;76.46;99150.29;2147869;80;29214;-64
2021/11/03 02:37:52;;;;;;;55.48;31.17;;;;;;;4.29;76.49;99147.57;2162145;82;27739;-67
2021/11/03 02:41:07;;;;;;;52.45;32.42;;;;;;;4.22;76.47;99150.06;2162154;82;28653;-64
2021/11/03 02:44:15;;;;;;;51.90;30.70;;;;;;;4.16;76.49;99148.54;2163361;81;31485;-69
2021/11/03 02:47:17;;;;;;;52.75;31.55;;;;;;;4.09;76.49;99142.64;2185165;80;32968;-69
2021/11/03 02:50:19;;;;;;;53.13;32.25;;;;;;;4.03;76.49;99142.88;2202770;80;30498;-68
2021/11/03 02:53:21;;;;;;;56.30;31.12;;;;;;;3.97;76.46;99140.95;2180999;80;27611;-68
2021/11/03 02:56:27;;;;;;;50.73;30.95;;;;;;;3.90;76.53;99144.32;2184376;80;29311;-68
2021/11/03 02:59:30;;;;;;;50.80;31.60;;;;;;;3.84;76.51;99140.14;2216578;80;31009;-69
2021/11/03 03:02:32;;;;;;;60.28;37.45;;;;;;;3.78;76.58;99147.87;2179098;80;33040;-68
2021/11/03 03:05:34;;;;;;;56.45;32.60;;;;;;;3.72;76.74;99153.41;2176355;81;29488;-68
2021/11/03 03:08:36;;;;;;;58.55;33.75;;;;;;;3.67;76.66;99156.69;2215529;80;28028;-68
2021/11/03 03:11:41;;;;;;;56.88;33.75;;;;;;;3.62;76.64;99150.27;2193192;80;29115;-68
2021/11/03 03:14:46;;;;;;;54.30;31.57;;;;;;;3.57;76.67;99144.75;2178074;81;30444;-67
2021/11/03 03:17:48;;;;;;;54.05;34.53;;;;;;;3.52;76.67;99154.20;2178119;81;32915;-66
2021/11/03 03:20:49;;;;;;;57.62;33.88;;;;;;;3.48;76.83;99151.27;2177454;81;30441;-67
2021/11/03 03:23:52;;;;;;;51.28;31.60;;;;;;;3.43;76.82;99151.91;2176427;81;27653;-66
2021/11/03 03:26:54;;;;;;;55.55;31.90;;;;;;;3.38;76.80;99153.41;2175709;81;30082;-66
2021/11/03 03:29:56;;;;;;;54.60;30.45;;;;;;;3.35;76.82;99156.17;2175569;81;32068;-69
2021/11/03 03:32:58;;;;;;;52.67;31.27;;;;;;;3.31;76.79;99156.77;2140867;83;33116;-68
2021/11/03 03:36:00;;;;;;;47.67;29.00;;;;;;;3.28;76.75;99154.70;2148321;80;29343;-59
2021/11/03 03:39:04;;;;;;;52.13;29.98;;;;;;;3.22;76.73;99161.09;2178463;81;27663;-59
2021/11/03 03:42:11;;;;;;;42.00;26.35;;;;;;;3.19;76.90;99162.05;2176161;81;28852;-60
2021/11/03 03:45:12;;;;;;;47.58;30.70;;;;;;;3.16;76.93;99166.12;2176220;81;31701;-61
2021/11/03 03:48:15;;;;;;;48.20;27.60;;;;;;;3.13;76.88;99173.33;2156996;81;33087;-59
2021/11/03 03:51:17;;;;;;;51.15;29.18;;;;;;;3.09;76.91;99173.91;2148486;82;30556;-59
2021/11/03 03:54:20;;;;;;;43.80;27.27;;;;;;;3.06;76.90;99185.93;2138886;83;28200;-62
2021/11/03 03:57:22;;;;;;;46.23;28.57;;;;;;;3.02;76.94;99186.95;2137204;83;28701;-62
2021/11/03 04:00:25;;;;;;;43.23;26.87;;;;;;;3.00;76.91;99192.75;2137420;83;31850;-62
2021/11/03 04:03:27;;;;;;;40.20;26.15;;;;;;;2.97;76.95;99195.54;2130137;82;33681;-64
2021/11/03 04:06:30;;;;;;;42.43;25.85;;;;;;;2.94;76.94;99195.64;2138550;83;30139;-65
2021/11/03 04:09:32;;;;;;;47.33;25.97;;;;;;;2.89;77.04;99205.08;2138425;83;27660;-63
2021/11/03 04:12:33;;;;;;;44.65;26.42;;;;;;;2.86;77.01;99215.28;2137862;83;29127;-61
2021/11/03 04:15:36;;;;;;;46.68;26.77;;;;;;;2.84;77.00;99216.27;2119264;84;31474;-61
2021/11/03 04:18:38;;;;;;;45.85;28.20;;;;;;;2.82;77.05;99212.81;2119227;84;33011;-60
2021/11/03 04:21:40;;;;;;;48.83;27.67;;;;;;;2.78;77.16;99209.42;2117703;84;30269;-66
2021/11/03 04:24:42;;;;;;;45.17;25.92;;;;;;;2.74;77.19;99210.44;2115541;83;27681;-62
2021/11/03 04:27:46;;;;;;;51.10;26.48;;;;;;;2.72;77.37;99212.27;2088375;84;29725;-61
2021/11/03 04:30:49;;;;;;;49.33;26.30;;;;;;;2.70;77.29;99211.45;2096312;84;30992;-62
2021/11/03 04:33:52;;;;;;;43.90;26.42;;;;;;;2.68;77.38;99203.59;2124306;83;34396;-61
2021/11/03 04:36:54;;;;;;;44.95;25.77;;;;;;;2.68;77.50;99206.67;2119052;83;29347;-61
2021/11/03 04:39:56;;;;;;;39.98;25.30;;;;;;;2.66;77.57;99210.70;2120954;83;27768;-61
2021/11/03 04:42:59;;;;;;;44.38;27.17;;;;;;;2.67;77.57;99211.56;2120974;83;29017;-66
2021/11/03 04:46:02;;;;;;;46.02;28.95;;;;;;;2.65;77.50;99211.62;2120307;84;31252;-67
2021/11/03 04:49:04;;;;;;;44.70;27.13;;;;;;;2.63;77.52;99207.31;2111164;83;33839;-63
2021/11/03 04:52:07;;;;;;;43.08;26.57;;;;;;;2.62;77.48;99208.23;2084228;85;30803;-65
2021/11/03 04:55:09;;;;;;;43.15;27.15;;;;;;;2.61;77.52;99198.57;2085448;85;27735;-65
2021/11/03 04:58:11;;;;;;;39.00;23.38;;;;;;;2.58;77.61;99200.84;2084896;85;29234;-67
2021/11/03 05:01:12;;;;;;;44.75;25.77;;;;;;;2.56;77.62;99202.23;2083883;85;31171;-66
2021/11/03 05:04:14;;;;;;;38.78;24.05;;;;;;;2.55;77.66;99201.82;2085047;85;32186;-66
2021/11/03 05:07:16;;;;;;;40.12;24.25;;;;;;;2.54;77.61;99201.89;2084936;85;30193;-63
2021/11/03 05:10:19;;;;;;;45.25;25.55;;;;;;;2.52;77.61;99208.53;2085416;85;27742;-66
2021/11/03 05:13:21;;;;;;;37.85;25.75;;;;;;;2.51;77.59;99203.31;2086520;83;28843;-63
2021/11/03 05:16:25;;;;;;;37.95;24.55;;;;;;;2.50;77.65;99212.16;2085505;85;31427;-64
2021/11/03 05:19:30;;;;;;;40.20;26.50;;;;;;;2.47;77.61;99214.45;2084207;85;32980;-61
2021/11/03 05:22:32;;;;;;;38.53;25.48;;;;;;;2.46;77.59;99215.81;2084125;83;29332;-62
2021/11/03 05:25:34;;;;;;;40.90;25.52;;;;;;;2.43;77.56;99218.96;2084213;85;27840;-65
2021/11/03 05:28:39;;;;;;;45.28;27.70;;;;;;;2.41;77.64;99218.62;2083541;85;29572;-68
2021/11/03 05:31:41;;;;;;;40.33;25.88;;;;;;;2.39;77.74;99222.64;2083999;85;31263;-62
2021/11/03 05:34:43;;;;;;;42.17;26.00;;;;;;;2.38;77.81;99219.59;2087267;83;33365;-67
2021/11/03 05:37:45;;;;;;;40.83;26.12;;;;;;;2.37;77.83;99232.41;2085254;85;30771;-67
2021/11/03 05:40:47;;;;;;;48.73;29.45;;;;;;;2.36;77.75;99231.11;2084378;85;27647;-64
2021/11/03 05:43:49;;;;;;;41.50;26.20;;;;;;;2.35;77.81;99235.98;2084285;85;28911;-61
2021/11/03 05:46:55;;;;;;;47.98;27.58;;;;;;;2.34;77.83;99228.53;2084333;85;31075;-64
2021/11/03 05:49:58;;;;;;;56.53;30.40;;;;;;;2.33;77.86;99228.56;2083874;85;34143;-64
2021/11/03 05:53:00;;;;;;;52.17;28.95;;;;;;;2.33;77.92;99232.09;2085990;83;30476;-66
2021/11/03 05:56:06;;;;;;;54.55;31.15;;;;;;;2.33;77.90;99240.02;2083684;85;27744;-66
2021/11/03 05:59:08;;;;;;;50.40;28.70;;;;;;;2.33;77.85;99238.70;2085736;85;28669;-62
2021/11/03 06:02:10;;;;;;;52.03;29.92;;;;;;;2.32;77.92;99239.61;2089775;83;31907;-67
2021/11/03 06:05:14;;;;;;;50.23;30.25;;;;;;;2.34;77.92;99247.03;2121276;83;33382;-65
2021/11/03 06:08:16;;;;;;;48.17;28.50;;;;;;;2.34;78.06;99251.44;2121113;83;29326;-65
2021/11/03 06:11:22;;;;;;;51.30;28.40;;;;;;;2.36;78.01;99253.58;2085663;85;27766;-63
2021/11/03 06:14:25;;;;;;;48.85;28.92;;;;;;;2.38;78.10;99252.63;2099814;83;28673;-67
2021/11/03 06:17:27;;;;;;;52.80;28.35;;;;;;;2.41;78.10;99264.40;2084079;85;32427;-66
2021/11/03 06:20:29;;;;;;;48.17;27.65;;;;;;;2.44;78.18;99264.77;2085597;85;34123;-62
2021/11/03 06:23:32;;;;;;;45.23;27.15;;;;;;;2.48;78.24;99269.05;2085337;85;29324;-60
2021/11/03 06:26:33;;;;;;;49.25;28.02;;;;;;;2.51;78.31;99270.25;2086032;85;27680;-60
2021/11/03 06:29:35;;;;;;;45.75;28.35;;;;;;;2.58;78.47;99273.55;2087510;83;29043;-60
2021/11/03 06:32:37;;;;;;;45.78;29.07;;;;;;;2.64;78.60;99275.15;2085256;85;32258;-60
2021/11/03 06:35:42;;;;;;;56.95;31.80;;;;;;;2.72;78.77;99278.38;2085726;85;33114;-62
2021/11/03 06:38:44;;;;;;;50.10;30.08;;;;;;;2.81;78.86;99275.44;2086056;85;29324;-67
2021/11/03 06:41:49;;;;;;;51.40;31.45;;;;;;;2.89;78.95;99277.34;2084609;85;27638;-64
2021/11/03 06:44:51;;;;;;;52.62;33.02;;;;;;;3.00;79.04;99286.23;2085837;83;28707;-67
2021/11/03 06:47:54;;;;;;;48.40;30.85;;;;;;;3.09;79.25;99285.05;2079654;84;31536;-60
2021/11/03 06:50:55;;;;;;;47.10;29.52;;;;;;;3.20;79.38;99280.70;2055557;86;33042;-62
2021/11/03 06:53:59;;;;;;;51.85;31.93;;;;;;;3.32;79.40;99284.66;2017321;86;30309;-65
2021/11/03 06:57:04;;;;;;;49.03;31.77;;;;;;;3.45;79.53;99290.38;2018109;88;27682;-65
2021/11/03 07:00:10;;;;;;;52.48;32.42;;;;;;;3.57;79.54;99288.59;2039252;85;28865;-64
2021/11/03 07:03:14;;;;;;;49.77;32.50;;;;;;;3.70;79.64;99280.22;2050681;86;31141;-63
2021/11/03 07:06:17;;;;;;;51.90;33.83;;;;;;;3.88;79.87;99283.48;2051446;86;33627;-67
2021/11/03 07:09:18;;;;;;;53.83;34.80;;;;;;;4.16;80.13;99282.40;2051192;85;30093;-63
2021/11/03 07:12:20;;;;;;;61.95;36.15;;;;;;;4.52;80.43;99286.27;2047187;86;28275;-68
2021/11/03 07:15:23;;;;;;;55.50;37.25;;;;;;;4.97;80.59;99285.24;2053003;86;29350;-68
2021/11/03 07:18:25;;;;;;;59.33;35.85;;;;;;;5.44;80.60;99290.73;2049870;86;32206;-63
2021/11/03 07:21:27;;;;;;;58.10;36.28;;;;;;;5.73;79.98;99289.87;2058550;85;33053;-66
2021/11/03 07:24:29;;;;;;;55.20;34.38;;;;;;;5.99;79.85;99294.91;2033370;85;30318;-60
2021/11/03 07:27:31;;;;;;;51.70;30.60;;;;;;;6.27;79.66;99287.84;2029871;86;27706;-60
2021/11/03 07:30:36;;;;;;;44.60;28.45;;;;;;;6.54;79.69;99288.30;2041486;86;29358;-60
2021/11/03 07:33:39;;;;;;;38.30;25.23;;;;;;;6.79;79.42;99296.86;2056086;85;31974;-62
2021/11/03 07:36:40;;;;;;;35.60;23.32;;;;;;;7.07;79.26;99303.43;2044987;84;33364;-62
2021/11/03 07:39:43;;;;;;;34.43;22.37;;;;;;;7.32;79.00;99296.36;2040977;84;29428;-64
2021/11/03 07:42:45;;;;;;;29.37;20.80;;;;;;;7.66;79.02;99303.05;2034136;86;28321;-63
2021/11/03 07:45:49;;;;;;;29.52;19.57;;;;;;;8.02;78.80;99303.33;2044474;85;29432;-59
2021/11/03 07:48:50;;;;;;;27.30;19.17;;;;;;;8.36;78.43;99306.29;2049414;83;31038;-63
2021/11/03 07:51:52;;;;;;;27.85;20.68;;;;;;;8.66;77.78;99300.66;2131227;83;33830;-61
2021/11/03 07:54:54;;;;;;;27.37;20.57;;;;;;;8.93;77.67;99299.52;2129464;83;30235;-60
2021/11/03 07:57:56;;;;;;;31.37;18.50;;;;;;;9.18;77.18;99307.89;2160459;80;27680;-61
2021/11/03 08:00:57;;;;;;;26.23;18.07;;;;;;;9.41;76.74;99317.19;2162036;80;29078;-61
2021/11/03 08:03:59;;;;;;;28.75;17.23;;;;;;;9.66;76.82;99323.69;2156521;80;33214;-62
2021/11/03 08:07:01;;;;;;;26.20;18.48;;;;;;;9.92;76.61;99325.23;2161183;82;32942;-65
2021/11/03 08:10:10;;;;;;;22.62;15.05;;;;;;;10.16;76.47;99321.48;2163626;82;29334;-64
2021/11/03 08:13:12;;;;;;;20.12;14.40;;;;;;;10.36;76.06;99319.31;2164581;80;27659;-64
2021/11/03 08:16:11;;;;;;;19.20;13.48;;;;;;;10.46;75.39;99320.00;2160759;82;28687;-63
2021/11/03 08:19:13;;;;;;;23.75;15.85;;;;;;;10.52;75.04;99324.09;2161776;82;31069;-64
2021/11/03 08:22:21;;;;;;;20.88;14.30;;;;;;;10.54;74.86;99330.70;2164098;82;34119;-65
2021/11/03 08:25:20;;;;;;;19.32;14.75;;;;;;;10.55;74.82;99339.12;2163135;82;30484;-65
2021/11/03 08:28:22;;;;;;;24.20;14.38;;;;;;;10.54;74.77;99333.38;2162917;80;27742;-65
2021/11/03 08:31:24;;;;;;;19.73;15.25;;;;;;;10.56;74.78;99332.31;2161922;82;28684;-64
2021/11/03 08:34:31;;;;;;;19.67;10.85;;;;;;;10.59;74.36;99329.94;2162069;82;31128;-66
2021/11/03 08:37:37;;;;;;;15.93;12.55;;;;;;;10.62;74.14;99330.58;2161422;82;33024;-66
2021/11/03 08:40:38;;;;;;;;;;;;;;;10.68;74.23;99333.80;2173545;80;29570;-63
2021/11/03 08:43:43;;;;;;;22.37;10.70;;;;;;;10.73;74.11;99337.91;2162110;82;28185;-62
2021/11/03 08:46:45;;;;;;;21.40;10.78;;;;;;;10.80;74.01;99342.38;2117576;82;28695;-62
2021/11/03 08:49:48;;;;;;;17.92;9.35;;;;;;;10.89;73.84;99335.06;2163008;80;32326;-63
2021/11/03 08:52:52;;;;;;;15.05;8.48;;;;;;;10.94;73.52;99345.00;2161461;82;33699;-63
2021/11/03 08:55:55;;;;;;;13.03;8.80;;;;;;;11.02;73.48;99344.48;2162133;82;29782;-62
2021/11/03 08:58:57;;;;;;;14.03;9.40;;;;;;;11.12;73.33;99350.55;2162094;82;27826;-62
2021/11/03 09:01:59;;;;;;;9.25;7.70;;;;;;;11.19;72.92;99339.31;2162076;82;29509;-60
2021/11/03 09:05:03;;;;;;;12.10;9.10;;;;;;;11.26;72.47;99339.75;2161931;82;30826;-62
2021/11/03 09:08:06;;;;;;;9.88;8.45;;;;;;;11.31;72.21;99338.13;2160796;82;33836;-62
2021/11/03 09:11:08;;;;;;;12.68;9.73;;;;;;;11.36;72.22;99339.52;2163656;82;29705;-63
2021/11/03 09:14:10;;;;;;;13.93;9.38;;;;;;;11.42;72.17;99328.85;2170240;80;27544;-62
2021/11/03 09:17:13;;;;;;;17.95;9.78;;;;;;;11.48;71.62;99330.24;2201939;80;29063;-61
2021/11/03 09:20:17;;;;;;;10.58;8.23;;;;;;;11.53;71.67;99326.77;2178943;80;31036;-62
2021/11/03 09:23:22;;;;;;;13.03;7.70;;;;;;;11.59;71.59;99329.00;2161755;82;33995;-60
2021/11/03 09:26:24;;;;;;;9.65;7.75;;;;;;;11.63;71.23;99325.66;2164385;82;29485;-59
2021/11/03 09:29:30;;;;;;;11.57;7.20;;;;;;;11.69;71.04;99327.42;2176173;80;27696;-61
2021/11/03 09:32:36;;;;;;;7.90;5.80;;;;;;;11.75;70.74;99327.47;2202164;80;28907;-60
2021/11/03 09:35:43;;;;;;;6.67;5.22;;;;;;;11.79;70.49;99314.68;2197531;80;31007;-60
2021/11/03 09:38:47;;;;;;;7.25;6.33;;;;;;;11.83;70.17;99314.84;2164469;82;33174;-60
2021/11/03 09:41:53;;;;;;;10.95;5.42;;;;;;;11.87;70.28;99321.72;2164745;82;29342;-61
2021/11/03 09:44:56;;;;;;;10.48;4.70;;;;;;;11.89;69.53;99314.42;2164302;82;27688;-60
2021/11/03 09:48:21;;;;;;;7.95;5.58;;;;;;;11.93;69.63;99320.42;2193922;80;29058;-60
2021/11/03 09:51:27;;;;;;;9.08;5.90;;;;;;;11.95;69.63;99312.63;2201629;80;31401;-60
2021/11/03 09:54:37;;;;;;;8.08;5.75;;;;;;;12.02;69.64;99317.59;2202197;80;33904;-60
2021/11/03 09:58:08;;;;;;;8.73;5.25;;;;;;;12.07;69.35;99320.82;2201836;80;29807;-60
2021/11/03 10:01:18;;;;;;;6.97;5.53;;;;;;;12.09;68.99;99317.05;2163633;81;27688;-60
2021/11/03 10:04:48;;;;;;;5.30;4.00;;;;;;;12.07;68.34;99309.58;2164978;82;28763;-60
2021/11/03 10:08:07;;;;;;;7.45;3.20;;;;;;;12.03;67.74;99312.61;2163458;81;32287;-59
2021/11/03 10:11:23;;;;;;;4.60;3.42;;;;;;;11.98;67.88;99305.73;2170748;80;33767;-63
2021/11/03 10:14:26;;;;;;;6.08;3.60;;;;;;;12.00;68.05;99302.45;2202188;80;29977;-60
2021/11/03 10:17:32;;;;;;;4.78;3.80;;;;;;;12.04;67.57;99300.91;2202192;80;27650;-60
2021/11/03 10:20:40;;;;;;;11.63;4.22;;;;;;;12.04;66.48;99297.72;2202092;80;28668;-58
2021/11/03 10:23:52;;;;;;;7.78;4.37;;;;;;;12.02;66.72;99298.81;2161412;82;32269;-58
2021/11/03 10:26:59;;;;;;;4.60;2.92;;;;;;;11.98;66.66;99293.66;2161831;82;34133;-59
2021/11/03 10:30:26;;;;;;;3.87;2.62;;;;;;;12.03;66.91;99297.84;2162055;82;30208;-59
2021/11/03 10:33:36;;;;;;;6.40;2.77;;;;;;;12.03;66.34;99291.13;2165974;80;27545;-60
2021/11/03 10:36:43;;;;;;;4.15;2.92;;;;;;;12.04;66.24;99286.14;2162770;82;29689;-60
2021/11/03 10:40:01;;;;;;;4.85;2.70;;;;;;;12.05;65.72;99287.86;2163960;82;31679;-61
2021/11/03 10:43:06;;;;;;;6.80;3.02;;;;;;;12.04;65.79;99278.92;2164204;82;32945;-58
2021/11/03 10:46:23;;;;;;;;;;;;;;;12.06;65.86;99280.17;2163174;80;29404;-61
2021/11/03 10:49:37;;;;;;;3.42;2.80;;;;;;;12.09;65.71;99277.25;2201980;80;27614;-59
2021/11/03 10:52:53;;;;;;;4.22;2.75;;;;;;;12.12;65.53;99277.91;2199147;80;28724;-59
2021/11/03 10:56:15;;;;;;;;;;;;;;;12.15;65.27;99279.49;2184036;80;31192;-59
2021/11/03 10:59:22;;;;;;;3.92;2.15;;;;;;;12.17;65.11;99262.80;2161936;82;32988;-59
2021/11/03 11:02:31;;;;;;;4.15;2.27;;;;;;;12.16;64.92;99259.23;2161724;82;30238;-58
2021/11/03 11:05:36;;;;;;;4.05;2.72;;;;;;;12.16;63.91;99259.73;2162235;82;27669;-59
2021/11/03 11:08:52;;;;;;;4.58;2.20;;;;;;;12.13;64.32;99254.58;2166242;80;29504;-59
2021/11/03 11:11:56;;;;;;;;;;;;;;;12.14;64.00;99259.86;2131415;82;31413;-59
2021/11/03 11:15:07;;;;;;;3.75;2.62;;;;;;;12.12;63.38;99254.20;2161294;80;32975;-59
2021/11/03 11:18:52;;;;;;;4.70;2.35;;;;;;;12.07;63.54;99250.52;2164134;82;29702;-58
2021/11/03 11:22:35;;;;;;;3.45;2.22;;;;;;;12.04;63.60;99262.82;2082361;85;27838;-60
2021/11/03 11:25:52;;;;;;;4.17;2.92;;;;;;;12.05;63.94;99252.95;2071241;85;28845;-59
2021/11/03 11:29:25;;;;;;;3.22;2.65;;;;;;;12.07;63.51;99248.34;2040703;87;27842;-59
2021/11/03 11:32:53;;;;;;;5.12;2.45;;;;;;;12.07;63.67;99246.50;2041010;86;33035;-59
2021/11/03 11:36:15;;;;;;;2.60;2.25;;;;;;;12.08;63.30;99244.69;2043233;84;30426;-59
2021/11/03 11:39:34;;;;;;;3.02;2.10;;;;;;;12.09;63.14;99246.37;2117488;83;27749;-59
2021/11/03 11:43:00;;;;;;;3.87;2.02;;;;;;;12.11;63.02;99248.47;2117479;83;29788;-61
2021/11/03 11:46:22;;;;;;;5.83;3.25;;;;;;;12.16;62.77;99255.70;2117858;83;31993;-61
2021/11/03 11:49:42;;;;;;;5.12;2.85;;;;;;;12.19;62.20;99255.48;2116903;82;34202;-61
2021/11/03 11:52:44;;;;;;;4.62;3.25;;;;;;;12.22;62.20;99250.37;2117914;84;29468;-60
2021/11/03 11:56:12;;;;;;;4.30;2.58;;;;;;;12.25;62.25;99247.46;2118547;84;27730;-57
2021/11/03 11:59:20;;;;;;;4.87;2.70;;;;;;;12.29;61.72;99253.83;2076849;84;28673;-59
2021/11/03 12:02:24;;;;;;;6.67;3.10;;;;;;;12.33;61.38;99246.39;2083624;85;31959;-59
2021/11/03 12:05:43;;;;;;;4.92;2.75;;;;;;;12.34;61.07;99246.77;2073134;84;32964;-64
2021/11/03 12:09:03;;;;;;;4.90;2.77;;;;;;;12.37;61.46;99245.70;2060901;85;29337;-61
2021/11/03 12:12:18;;;;;;;4.22;2.50;;;;;;;12.40;61.33;99244.14;2093292;84;27738;-59
2021/11/03 12:15:53;;;;;;;8.25;3.50;;;;;;;12.44;61.11;99248.28;2095679;84;28596;-60
2021/11/03 12:18:59;;;;;;;4.10;3.15;;;;;;;12.48;60.28;99250.28;2083915;85;32182;-60
2021/11/03 12:22:05;;;;;;;5.83;3.15;;;;;;;12.47;60.09;99246.72;2095503;84;32898;-61
2021/11/03 12:25:24;;;;;;;5.78;3.33;;;;;;;12.46;60.66;99243.66;2081379;85;29350;-59
2021/11/03 12:28:45;;;;;;;5.15;2.95;;;;;;;12.46;60.70;99244.53;2095385;84;28217;-60
2021/11/03 12:31:57;;;;;;;3.65;2.42;;;;;;;12.48;60.29;99244.91;2200179;80;29458;-66
2021/11/03 12:35:07;;;;;;;4.10;2.62;;;;;;;12.46;60.43;99241.84;2164794;82;31958;-67
2021/11/03 12:38:17;;;;;;;4.53;2.67;;;;;;;12.48;60.25;99232.82;2160566;82;33766;-66
2021/11/03 12:41:23;;;;;;;3.00;2.00;;;;;;;12.51;60.07;99228.53;2164393;82;30193;-66
2021/11/03 12:44:44;;;;;;;4.47;2.83;;;;;;;12.52;59.99;99220.38;2166888;80;27713;-65
2021/11/03 12:47:56;;;;;;;4.50;3.00;;;;;;;12.56;59.88;99216.50;2164710;82;28818;-63
2021/11/03 12:50:58;;;;;;;3.58;2.95;;;;;;;12.61;59.27;99211.61;2163988;82;30900;-64
2021/11/03 12:54:11;;;;;;;3.20;2.90;;;;;;;12.63;59.66;99210.64;2161955;81;33975;-61
2021/11/03 12:57:24;;;;;;;5.60;2.80;;;;;;;12.64;59.14;99214.57;2162028;82;29364;-59
2021/11/03 13:00:33;;;;;;;5.05;2.98;;;;;;;12.66;58.85;99207.72;2161940;82;27729;-60
2021/11/03 13:03:37;;;;;;;6.37;2.90;;;;;;;12.68;58.84;99202.59;2162375;80;30366;-59
2021/11/03 13:07:00;;;;;;;3.92;2.30;;;;;;;12.71;58.98;99213.61;2164027;82;30887;-59
2021/11/03 13:10:34;;;;;;;8.08;2.22;;;;;;;12.71;58.66;99212.27;2163972;80;33782;-60
2021/11/03 13:13:47;;;;;;;3.00;2.22;;;;;;;12.70;58.20;99213.24;2164172;82;30116;-61
2021/11/03 13:16:52;;;;;;;3.02;1.98;;;;;;;12.69;57.87;99211.03;2164104;82;27704;-59
2021/11/03 13:20:03;;;;;;;;;;;;;;;12.67;57.98;99212.12;2166581;82;28891;-64
2021/11/03 13:23:17;;;;;;;6.28;3.85;;;;;;;12.68;57.97;99214.69;2026734;86;28495;-57
2021/11/03 13:26:27;;;;;;;3.08;2.62;;;;;;;12.66;58.28;99207.22;1991121;89;33133;-61
2021/11/03 13:29:33;;;;;;;4.53;2.50;;;;;;;12.65;57.76;99199.29;1990154;89;30337;-58
2021/11/03 13:32:55;;;;;;;4.87;2.77;;;;;;;12.66;58.42;99192.95;2033023;87;28106;-61
2021/11/03 13:36:08;;;;;;;6.03;4.05;;;;;;;12.68;58.17;99186.97;2028907;87;30643;-64
2021/11/03 13:39:33;;;;;;;7.85;4.87;;;;;;;12.70;58.54;99173.77;2022899;88;32294;-64
2021/11/03 13:42:47;;;;;;;10.63;5.45;;;;;;;12.74;58.51;99179.80;2020750;88;33105;-60
2021/11/03 13:45:59;;;;;;;10.55;5.90;;;;;;;12.78;58.24;99177.22;2020717;88;30664;-61
2021/11/03 13:49:17;;;;;;;7.17;5.65;;;;;;;12.83;58.49;99175.51;2020302;88;28288;-60
2021/11/03 13:52:24;;;;;;;9.83;5.22;;;;;;;12.88;58.45;99173.33;2013031;87;29878;-59
2021/11/03 13:55:34;;;;;;;9.48;6.80;;;;;;;12.91;58.58;99176.63;2012772;88;31186;-60
2021/11/03 13:58:58;;;;;;;7.35;5.87;;;;;;;12.95;58.55;99173.23;2010721;88;34214;-60
2021/11/03 14:02:11;;;;;;;10.48;6.28;;;;;;;12.96;58.63;99171.39;2012858;88;30189;-61
2021/11/03 14:05:43;;;;;;;11.48;5.40;;;;;;;12.92;58.81;99162.72;2008293;88;27787;-59
2021/11/03 14:08:45;;;;;;;7.55;5.33;;;;;;;12.90;59.06;99166.01;2005071;88;30002;-63
2021/11/03 14:11:53;;;;;;;6.62;4.87;;;;;;;12.84;58.93;99158.41;2017146;88;32051;-60
2021/11/03 14:14:56;;;;;;;18.37;12.05;;;;;;;12.77;59.03;99156.69;2016803;88;33043;-63
2021/11/03 14:17:58;;;;;;;9.65;6.08;;;;;;;12.74;59.39;99160.98;2017959;86;30681;-64
2021/11/03 14:21:01;;;;;;;8.20;5.75;;;;;;;12.65;59.51;99161.67;2115750;83;27720;-65
2021/11/03 14:24:06;;;;;;;11.30;6.30;;;;;;;12.57;59.83;99163.61;2119356;84;29960;-67
2021/11/03 14:27:10;;;;;;;8.73;6.28;;;;;;;12.49;60.14;99159.32;2119664;83;31104;-64
2021/11/03 14:30:12;;;;;;;;;;;;;;;12.39;60.33;99173.43;2126687;83;33618;-63
2021/11/03 14:33:34;;;;;;;9.35;6.25;;;;;;;12.28;60.59;99168.02;2078414;85;30198;-59